sensor_id;sensor_type;location;lat;lon;timestamp;P1;durP1;ratioP1;P2;durP2;ratioP2
42886;SDS011;29032;56.028;92.904;2024-03-23T00:55:22;25.37;;;12.27;;
42886;SDS011;29032;56.028;92.904;2024-03-23T01:00:43;21.70;;;10.37;;
42886;SDS011;29032;56.028;92.904;2024-03-23T01:05:45;20.23;;;9.60;;
42886;SDS011;29032;56.028;92.904;2024-03-23T01:10:55;16.07;;;7.80;;
42886;SDS011;29032;56.028;92.904;2024-03-23T01:15:57;10.97;;;5.30;;
42886;SDS011;29032;56.028;92.904;2024-03-23T01:20:59;10.13;;;5.87;;
42886;SDS011;29032;56.028;92.904;2024-03-23T01:26:03;8.93;;;4.57;;
42886;SDS011;29032;56.028;92.904;2024-03-23T01:31:05;7.33;;;4.53;;
42886;SDS011;29032;56.028;92.904;2024-03-23T01:36:07;6.50;;;3.43;;
42886;SDS011;29032;56.028;92.904;2024-03-23T01:41:11;5.63;;;3.57;;
42886;SDS011;29032;56.028;92.904;2024-03-23T01:46:13;9.83;;;4.93;;
42886;SDS011;29032;56.028;92.904;2024-03-23T01:51:15;13.37;;;5.67;;
42886;SDS011;29032;56.028;92.904;2024-03-23T01:56:19;13.00;;;5.80;;
42886;SDS011;29032;56.028;92.904;2024-03-23T02:01:21;8.67;;;5.13;;
42886;SDS011;29032;56.028;92.904;2024-03-23T02:06:24;9.03;;;5.40;;
42886;SDS011;29032;56.028;92.904;2024-03-23T02:11:27;12.83;;;6.13;;
42886;SDS011;29032;56.028;92.904;2024-03-23T02:16:30;12.13;;;6.40;;
42886;SDS011;29032;56.028;92.904;2024-03-23T02:21:32;10.10;;;5.07;;
42886;SDS011;29032;56.028;92.904;2024-03-23T02:26:35;11.70;;;5.17;;
42886;SDS011;29032;56.028;92.904;2024-03-23T02:31:37;10.13;;;5.10;;
42886;SDS011;29032;56.028;92.904;2024-03-23T02:36:40;11.67;;;4.77;;
42886;SDS011;29032;56.028;92.904;2024-03-23T02:41:43;6.97;;;4.60;;
42886;SDS011;29032;56.028;92.904;2024-03-23T02:46:45;7.20;;;4.13;;
42886;SDS011;29032;56.028;92.904;2024-03-23T02:51:47;9.00;;;4.37;;
42886;SDS011;29032;56.028;92.904;2024-03-23T02:56:51;8.23;;;3.90;;
42886;SDS011;29032;56.028;92.904;2024-03-23T03:01:54;8.53;;;3.60;;
42886;SDS011;29032;56.028;92.904;2024-03-23T03:06:56;10.97;;;3.33;;
42886;SDS011;29032;56.028;92.904;2024-03-23T03:12:00;6.20;;;3.90;;
42886;SDS011;29032;56.028;92.904;2024-03-23T03:17:02;6.17;;;3.33;;
42886;SDS011;29032;56.028;92.904;2024-03-23T03:22:05;9.30;;;3.80;;
42886;SDS011;29032;56.028;92.904;2024-03-23T03:27:08;8.97;;;4.10;;
42886;SDS011;29032;56.028;92.904;2024-03-23T03:32:10;7.37;;;4.27;;
42886;SDS011;29032;56.028;92.904;2024-03-23T03:37:13;12.80;;;5.30;;
42886;SDS011;29032;56.028;92.904;2024-03-23T03:42:16;9.90;;;3.57;;
42886;SDS011;29032;56.028;92.904;2024-03-23T03:47:18;5.90;;;3.57;;
42886;SDS011;29032;56.028;92.904;2024-03-23T03:52:21;9.90;;;3.50;;
42886;SDS011;29032;56.028;92.904;2024-03-23T03:57:24;7.37;;;3.10;;
42886;SDS011;29032;56.028;92.904;2024-03-23T04:02:26;9.80;;;4.47;;
42886;SDS011;29032;56.028;92.904;2024-03-23T04:07:28;7.63;;;3.47;;
42886;SDS011;29032;56.028;92.904;2024-03-23T04:12:32;6.13;;;3.30;;
42886;SDS011;29032;56.028;92.904;2024-03-23T04:17:34;5.60;;;3.47;;
42886;SDS011;29032;56.028;92.904;2024-03-23T04:22:37;3.80;;;3.13;;
42886;SDS011;29032;56.028;92.904;2024-03-23T04:27:40;6.33;;;3.73;;
42886;SDS011;29032;56.028;92.904;2024-03-23T04:32:43;7.57;;;3.63;;
42886;SDS011;29032;56.028;92.904;2024-03-23T04:37:45;7.90;;;4.07;;
42886;SDS011;29032;56.028;92.904;2024-03-23T04:42:48;8.43;;;4.47;;
42886;SDS011;29032;56.028;92.904;2024-03-23T04:47:50;8.40;;;4.07;;
42886;SDS011;29032;56.028;92.904;2024-03-23T04:52:53;8.63;;;4.30;;
42886;SDS011;29032;56.028;92.904;2024-03-23T04:57:56;6.80;;;4.30;;
42886;SDS011;29032;56.028;92.904;2024-03-23T05:02:58;10.43;;;4.80;;
42886;SDS011;29032;56.028;92.904;2024-03-23T05:08:01;9.80;;;4.47;;
42886;SDS011;29032;56.028;92.904;2024-03-23T05:13:04;7.63;;;4.50;;
42886;SDS011;29032;56.028;92.904;2024-03-23T05:18:06;5.63;;;3.70;;
42886;SDS011;29032;56.028;92.904;2024-03-23T05:23:08;7.00;;;3.90;;
42886;SDS011;29032;56.028;92.904;2024-03-23T05:28:12;7.03;;;3.60;;
42886;SDS011;29032;56.028;92.904;2024-03-23T05:33:14;4.93;;;3.53;;
42886;SDS011;29032;56.028;92.904;2024-03-23T05:38:16;5.43;;;3.03;;
42886;SDS011;29032;56.028;92.904;2024-03-23T05:43:20;4.77;;;3.00;;
42886;SDS011;29032;56.028;92.904;2024-03-23T05:48:22;5.17;;;2.90;;
42886;SDS011;29032;56.028;92.904;2024-03-23T05:53:25;5.10;;;2.80;;
42886;SDS011;29032;56.028;92.904;2024-03-23T05:58:29;5.60;;;3.33;;
42886;SDS011;29032;56.028;92.904;2024-03-23T06:03:31;4.87;;;2.17;;
42886;SDS011;29032;56.028;92.904;2024-03-23T06:08:33;6.70;;;3.80;;
42886;SDS011;29032;56.028;92.904;2024-03-23T06:13:37;6.30;;;2.93;;
42886;SDS011;29032;56.028;92.904;2024-03-23T06:18:39;4.83;;;3.20;;
42886;SDS011;29032;56.028;92.904;2024-03-23T06:23:41;5.40;;;2.97;;
42886;SDS011;29032;56.028;92.904;2024-03-23T06:28:45;6.47;;;3.37;;
42886;SDS011;29032;56.028;92.904;2024-03-23T06:33:47;4.53;;;2.27;;
42886;SDS011;29032;56.028;92.904;2024-03-23T06:38:49;3.10;;;2.57;;
42886;SDS011;29032;56.028;92.904;2024-03-23T06:43:53;5.43;;;2.80;;
42886;SDS011;29032;56.028;92.904;2024-03-23T06:48:55;4.63;;;2.53;;
42886;SDS011;29032;56.028;92.904;2024-03-23T06:53:57;6.47;;;3.40;;
42886;SDS011;29032;56.028;92.904;2024-03-23T06:59:01;5.33;;;2.90;;
42886;SDS011;29032;56.028;92.904;2024-03-23T07:04:03;3.77;;;2.60;;
42886;SDS011;29032;56.028;92.904;2024-03-23T07:09:06;4.13;;;2.67;;
42886;SDS011;29032;56.028;92.904;2024-03-23T07:14:09;4.20;;;2.53;;
42886;SDS011;29032;56.028;92.904;2024-03-23T07:19:11;3.93;;;2.80;;
42886;SDS011;29032;56.028;92.904;2024-03-23T07:24:15;6.77;;;2.73;;
42886;SDS011;29032;56.028;92.904;2024-03-23T07:29:18;3.73;;;3.17;;
42886;SDS011;29032;56.028;92.904;2024-03-23T07:34:20;6.40;;;2.63;;
42886;SDS011;29032;56.028;92.904;2024-03-23T07:39:23;3.50;;;2.53;;
42886;SDS011;29032;56.028;92.904;2024-03-23T07:44:26;7.13;;;3.73;;
42886;SDS011;29032;56.028;92.904;2024-03-23T07:49:28;3.00;;;2.40;;
42886;SDS011;29032;56.028;92.904;2024-03-23T07:54:31;5.37;;;2.57;;
42886;SDS011;29032;56.028;92.904;2024-03-23T07:59:34;4.03;;;2.50;;
42886;SDS011;29032;56.028;92.904;2024-03-23T08:04:36;4.57;;;2.70;;
42886;SDS011;29032;56.028;92.904;2024-03-23T08:09:39;4.33;;;2.50;;
42886;SDS011;29032;56.028;92.904;2024-03-23T08:14:42;3.90;;;2.77;;
42886;SDS011;29032;56.028;92.904;2024-03-23T08:19:44;4.77;;;2.73;;
42886;SDS011;29032;56.028;92.904;2024-03-23T08:24:47;3.47;;;2.93;;
42886;SDS011;29032;56.028;92.904;2024-03-23T08:29:50;4.20;;;2.80;;
42886;SDS011;29032;56.028;92.904;2024-03-23T08:34:52;4.77;;;2.90;;
42886;SDS011;29032;56.028;92.904;2024-03-23T08:39:55;5.03;;;2.90;;
42886;SDS011;29032;56.028;92.904;2024-03-23T08:44:58;3.63;;;2.83;;
42886;SDS011;29032;56.028;92.904;2024-03-23T08:50:00;10.13;;;3.20;;
42886;SDS011;29032;56.028;92.904;2024-03-23T09:00:24;4.70;;;3.23;;
42886;SDS011;29032;56.028;92.904;2024-03-23T09:05:26;4.87;;;2.70;;
42886;SDS011;29032;56.028;92.904;2024-03-23T09:10:28;4.47;;;3.00;;
42886;SDS011;29032;56.028;92.904;2024-03-23T09:15:32;6.37;;;3.30;;
42886;SDS011;29032;56.028;92.904;2024-03-23T09:20:35;4.80;;;2.73;;
42886;SDS011;29032;56.028;92.904;2024-03-23T09:25:37;3.20;;;2.37;;
42886;SDS011;29032;56.028;92.904;2024-03-23T09:30:41;2.33;;;2.13;;
42886;SDS011;29032;56.028;92.904;2024-03-23T09:46:26;5.13;;;2.40;;
42886;SDS011;29032;56.028;92.904;2024-03-23T09:51:28;3.57;;;2.53;;
42886;SDS011;29032;56.028;92.904;2024-03-23T09:56:31;8.37;;;2.57;;
42886;SDS011;29032;56.028;92.904;2024-03-23T10:01:34;5.53;;;3.00;;
42886;SDS011;29032;56.028;92.904;2024-03-23T10:06:37;4.93;;;2.83;;
42886;SDS011;29032;56.028;92.904;2024-03-23T10:11:39;2.87;;;2.30;;
42886;SDS011;29032;56.028;92.904;2024-03-23T10:16:42;4.20;;;2.37;;
42886;SDS011;29032;56.028;92.904;2024-03-23T10:21:52;7.13;;;2.80;;
42886;SDS011;29032;56.028;92.904;2024-03-23T10:26:55;5.20;;;2.57;;
42886;SDS011;29032;56.028;92.904;2024-03-23T10:37:19;4.53;;;2.50;;
42886;SDS011;29032;56.028;92.904;2024-03-23T10:42:22;5.07;;;2.40;;
42886;SDS011;29032;56.028;92.904;2024-03-23T10:47:25;3.57;;;2.60;;
42886;SDS011;29032;56.028;92.904;2024-03-23T10:52:28;3.73;;;2.37;;
42886;SDS011;29032;56.028;92.904;2024-03-23T10:57:31;3.83;;;2.90;;
42886;SDS011;29032;56.028;92.904;2024-03-23T11:02:38;4.20;;;2.93;;
42886;SDS011;29032;56.028;92.904;2024-03-23T11:07:40;3.67;;;2.70;;
42886;SDS011;29032;56.028;92.904;2024-03-23T11:12:54;7.10;;;2.57;;
42886;SDS011;29032;56.028;92.904;2024-03-23T11:18:04;6.03;;;2.50;;
42886;SDS011;29032;56.028;92.904;2024-03-23T11:23:08;2.90;;;2.50;;
42886;SDS011;29032;56.028;92.904;2024-03-23T11:28:28;3.13;;;2.80;;
42886;SDS011;29032;56.028;92.904;2024-03-23T11:33:33;3.57;;;2.43;;
42886;SDS011;29032;56.028;92.904;2024-03-23T11:38:36;4.73;;;2.60;;
42886;SDS011;29032;56.028;92.904;2024-03-23T11:43:38;4.53;;;2.80;;
42886;SDS011;29032;56.028;92.904;2024-03-23T11:48:49;5.40;;;2.63;;
42886;SDS011;29032;56.028;92.904;2024-03-23T11:53:51;5.33;;;2.53;;
42886;SDS011;29032;56.028;92.904;2024-03-23T11:58:53;4.50;;;2.50;;
42886;SDS011;29032;56.028;92.904;2024-03-23T12:03:57;3.67;;;2.90;;
42886;SDS011;29032;56.028;92.904;2024-03-23T12:09:05;4.13;;;2.37;;
42886;SDS011;29032;56.028;92.904;2024-03-23T12:14:07;4.67;;;2.23;;
42886;SDS011;29032;56.028;92.904;2024-03-23T12:19:11;3.60;;;2.33;;
42886;SDS011;29032;56.028;92.904;2024-03-23T12:24:14;4.43;;;2.70;;
42886;SDS011;29032;56.028;92.904;2024-03-23T12:29:17;2.87;;;2.10;;
42886;SDS011;29032;56.028;92.904;2024-03-23T12:34:20;4.30;;;2.53;;
42886;SDS011;29032;56.028;92.904;2024-03-23T12:39:22;4.20;;;2.73;;
42886;SDS011;29032;56.028;92.904;2024-03-23T12:44:25;5.50;;;3.40;;
42886;SDS011;29032;56.028;92.904;2024-03-23T12:49:28;4.97;;;3.03;;
42886;SDS011;29032;56.028;92.904;2024-03-23T12:54:31;5.20;;;3.30;;
42886;SDS011;29032;56.028;92.904;2024-03-23T12:59:33;5.90;;;2.93;;
42886;SDS011;29032;56.028;92.904;2024-03-23T13:04:36;3.67;;;2.80;;
42886;SDS011;29032;56.028;92.904;2024-03-23T13:09:39;5.23;;;2.70;;
42886;SDS011;29032;56.028;92.904;2024-03-23T13:14:41;8.10;;;4.40;;
42886;SDS011;29032;56.028;92.904;2024-03-23T13:19:44;5.57;;;3.20;;
42886;SDS011;29032;56.028;92.904;2024-03-23T13:24:47;7.57;;;4.07;;
42886;SDS011;29032;56.028;92.904;2024-03-23T13:29:49;3.40;;;2.77;;
42886;SDS011;29032;56.028;92.904;2024-03-23T13:34:53;5.40;;;3.70;;
42886;SDS011;29032;56.028;92.904;2024-03-23T13:39:55;4.83;;;3.20;;
42886;SDS011;29032;56.028;92.904;2024-03-23T13:44:57;4.83;;;3.83;;
42886;SDS011;29032;56.028;92.904;2024-03-23T13:50:00;7.07;;;3.57;;
42886;SDS011;29032;56.028;92.904;2024-03-23T13:55:03;4.27;;;2.93;;
42886;SDS011;29032;56.028;92.904;2024-03-23T14:00:07;4.37;;;2.83;;
42886;SDS011;29032;56.028;92.904;2024-03-23T14:05:15;4.27;;;2.70;;
42886;SDS011;29032;56.028;92.904;2024-03-23T14:10:17;5.03;;;2.97;;
42886;SDS011;29032;56.028;92.904;2024-03-23T14:15:20;3.53;;;2.37;;
42886;SDS011;29032;56.028;92.904;2024-03-23T14:20:24;4.93;;;2.60;;
42886;SDS011;29032;56.028;92.904;2024-03-23T14:25:26;6.03;;;3.00;;
42886;SDS011;29032;56.028;92.904;2024-03-23T14:30:28;6.17;;;3.00;;
42886;SDS011;29032;56.028;92.904;2024-03-23T14:35:32;4.97;;;3.10;;
42886;SDS011;29032;56.028;92.904;2024-03-23T14:40:34;5.57;;;3.27;;
42886;SDS011;29032;56.028;92.904;2024-03-23T14:45:36;9.43;;;4.80;;
42886;SDS011;29032;56.028;92.904;2024-03-23T14:50:40;5.57;;;3.17;;
42886;SDS011;29032;56.028;92.904;2024-03-23T14:55:42;3.80;;;3.10;;
42886;SDS011;29032;56.028;92.904;2024-03-23T15:00:44;3.30;;;3.00;;
42886;SDS011;29032;56.028;92.904;2024-03-23T15:05:54;6.23;;;3.33;;
42886;SDS011;29032;56.028;92.904;2024-03-23T15:10:58;4.27;;;2.80;;
42886;SDS011;29032;56.028;92.904;2024-03-23T15:16:01;6.23;;;3.07;;
42886;SDS011;29032;56.028;92.904;2024-03-23T15:21:05;4.40;;;3.07;;
42886;SDS011;29032;56.028;92.904;2024-03-23T15:26:07;3.70;;;2.50;;
42886;SDS011;29032;56.028;92.904;2024-03-23T15:31:09;5.77;;;2.77;;
42886;SDS011;29032;56.028;92.904;2024-03-23T15:36:13;4.40;;;3.10;;
42886;SDS011;29032;56.028;92.904;2024-03-23T15:41:15;6.40;;;3.40;;
42886;SDS011;29032;56.028;92.904;2024-03-23T15:46:18;6.07;;;2.70;;
42886;SDS011;29032;56.028;92.904;2024-03-23T15:51:21;7.23;;;3.60;;
42886;SDS011;29032;56.028;92.904;2024-03-23T15:56:23;6.40;;;3.20;;
42886;SDS011;29032;56.028;92.904;2024-03-23T16:01:26;5.60;;;3.07;;
42886;SDS011;29032;56.028;92.904;2024-03-23T16:06:29;6.97;;;4.23;;
42886;SDS011;29032;56.028;92.904;2024-03-23T16:11:31;4.90;;;2.70;;
42886;SDS011;29032;56.028;92.904;2024-03-23T16:16:34;5.43;;;2.70;;
42886;SDS011;29032;56.028;92.904;2024-03-23T16:21:37;6.20;;;2.93;;
42886;SDS011;29032;56.028;92.904;2024-03-23T16:26:39;4.23;;;2.47;;
42886;SDS011;29032;56.028;92.904;2024-03-23T16:31:41;5.60;;;2.47;;
42886;SDS011;29032;56.028;92.904;2024-03-23T16:36:45;4.97;;;2.57;;
42886;SDS011;29032;56.028;92.904;2024-03-23T16:41:47;5.17;;;2.80;;
42886;SDS011;29032;56.028;92.904;2024-03-23T16:46:49;7.47;;;2.93;;
42886;SDS011;29032;56.028;92.904;2024-03-23T16:51:53;7.80;;;4.10;;
42886;SDS011;29032;56.028;92.904;2024-03-23T16:56:55;6.60;;;3.57;;
42886;SDS011;29032;56.028;92.904;2024-03-23T17:01:57;5.43;;;2.97;;
42886;SDS011;29032;56.028;92.904;2024-03-23T17:07:01;10.57;;;4.80;;
42886;SDS011;29032;56.028;92.904;2024-03-23T17:12:03;5.17;;;3.40;;
42886;SDS011;29032;56.028;92.904;2024-03-23T17:17:26;4.27;;;3.10;;
42886;SDS011;29032;56.028;92.904;2024-03-23T17:22:30;4.27;;;2.40;;
42886;SDS011;29032;56.028;92.904;2024-03-23T17:27:32;5.20;;;2.03;;
42886;SDS011;29032;56.028;92.904;2024-03-23T17:32:35;4.87;;;2.50;;
42886;SDS011;29032;56.028;92.904;2024-03-23T17:37:39;4.83;;;2.57;;
42886;SDS011;29032;56.028;92.904;2024-03-23T17:42:41;3.63;;;2.47;;
42886;SDS011;29032;56.028;92.904;2024-03-23T17:47:44;2.73;;;1.90;;
42886;SDS011;29032;56.028;92.904;2024-03-23T17:52:52;3.65;;;2.45;;
42886;SDS011;29032;56.028;92.904;2024-03-23T17:57:54;7.10;;;2.40;;
42886;SDS011;29032;56.028;92.904;2024-03-23T18:02:56;4.17;;;2.40;;
42886;SDS011;29032;56.028;92.904;2024-03-23T18:08:00;3.67;;;2.00;;
42886;SDS011;29032;56.028;92.904;2024-03-23T18:13:02;2.97;;;2.13;;
42886;SDS011;29032;56.028;92.904;2024-03-23T18:18:05;5.23;;;2.40;;
42886;SDS011;29032;56.028;92.904;2024-03-23T18:23:08;2.67;;;2.07;;
42886;SDS011;29032;56.028;92.904;2024-03-23T18:28:10;3.63;;;2.13;;
42886;SDS011;29032;56.028;92.904;2024-03-23T18:33:12;3.77;;;2.10;;
42886;SDS011;29032;56.028;92.904;2024-03-23T18:38:16;2.73;;;2.10;;
42886;SDS011;29032;56.028;92.904;2024-03-23T18:43:18;3.13;;;2.13;;
42886;SDS011;29032;56.028;92.904;2024-03-23T18:48:20;2.97;;;2.10;;
42886;SDS011;29032;56.028;92.904;2024-03-23T18:53:24;5.33;;;2.30;;
42886;SDS011;29032;56.028;92.904;2024-03-23T18:58:26;4.17;;;2.10;;
42886;SDS011;29032;56.028;92.904;2024-03-23T19:03:28;5.17;;;2.70;;
42886;SDS011;29032;56.028;92.904;2024-03-23T19:08:33;7.20;;;2.93;;
42886;SDS011;29032;56.028;92.904;2024-03-23T19:13:35;4.70;;;2.80;;
42886;SDS011;29032;56.028;92.904;2024-03-23T19:18:37;5.13;;;2.20;;
42886;SDS011;29032;56.028;92.904;2024-03-23T19:23:41;7.00;;;3.20;;
42886;SDS011;29032;56.028;92.904;2024-03-23T19:28:43;3.30;;;2.10;;
42886;SDS011;29032;56.028;92.904;2024-03-23T19:33:45;4.60;;;2.30;;
42886;SDS011;29032;56.028;92.904;2024-03-23T19:38:49;3.33;;;1.90;;
42886;SDS011;29032;56.028;92.904;2024-03-23T19:43:51;3.77;;;2.57;;
42886;SDS011;29032;56.028;92.904;2024-03-23T19:48:53;5.60;;;2.20;;
42886;SDS011;29032;56.028;92.904;2024-03-23T19:53:57;3.97;;;2.63;;
42886;SDS011;29032;56.028;92.904;2024-03-23T19:58:59;6.50;;;3.20;;
42886;SDS011;29032;56.028;92.904;2024-03-23T20:04:01;5.93;;;3.10;;
42886;SDS011;29032;56.028;92.904;2024-03-23T20:09:23;6.17;;;2.90;;
42886;SDS011;29032;56.028;92.904;2024-03-23T20:14:25;3.97;;;2.70;;
42886;SDS011;29032;56.028;92.904;2024-03-23T20:19:28;5.37;;;3.00;;
42886;SDS011;29032;56.028;92.904;2024-03-23T20:24:32;4.53;;;2.50;;
42886;SDS011;29032;56.028;92.904;2024-03-23T20:29:34;3.70;;;2.10;;
42886;SDS011;29032;56.028;92.904;2024-03-23T20:34:36;2.83;;;2.50;;
42886;SDS011;29032;56.028;92.904;2024-03-23T20:39:40;5.03;;;2.60;;
42886;SDS011;29032;56.028;92.904;2024-03-23T20:44:42;4.10;;;2.40;;
42886;SDS011;29032;56.028;92.904;2024-03-23T20:49:44;5.10;;;2.40;;
42886;SDS011;29032;56.028;92.904;2024-03-23T20:54:49;4.23;;;2.20;;
42886;SDS011;29032;56.028;92.904;2024-03-23T20:59:51;4.73;;;2.50;;
42886;SDS011;29032;56.028;92.904;2024-03-23T21:04:53;3.73;;;2.40;;
42886;SDS011;29032;56.028;92.904;2024-03-23T21:09:57;4.57;;;2.33;;
42886;SDS011;29032;56.028;92.904;2024-03-23T21:14:59;3.17;;;2.20;;
42886;SDS011;29032;56.028;92.904;2024-03-23T21:20:01;6.37;;;3.00;;
42886;SDS011;29032;56.028;92.904;2024-03-23T21:25:05;9.93;;;2.80;;
42886;SDS011;29032;56.028;92.904;2024-03-23T21:30:08;6.07;;;2.73;;
42886;SDS011;29032;56.028;92.904;2024-03-23T21:35:11;9.07;;;3.63;;
42886;SDS011;29032;56.028;92.904;2024-03-23T21:40:15;4.80;;;2.70;;
42886;SDS011;29032;56.028;92.904;2024-03-23T21:45:17;5.40;;;2.80;;
42886;SDS011;29032;56.028;92.904;2024-03-23T21:50:19;4.47;;;2.67;;
42886;SDS011;29032;56.028;92.904;2024-03-23T21:55:23;4.60;;;2.37;;
42886;SDS011;29032;56.028;92.904;2024-03-23T22:00:25;4.50;;;2.77;;
42886;SDS011;29032;56.028;92.904;2024-03-23T22:05:27;3.60;;;2.50;;
42886;SDS011;29032;56.028;92.904;2024-03-23T22:10:32;6.00;;;2.50;;
42886;SDS011;29032;56.028;92.904;2024-03-23T22:15:34;2.60;;;2.27;;
42886;SDS011;29032;56.028;92.904;2024-03-23T22:20:36;4.33;;;1.90;;
42886;SDS011;29032;56.028;92.904;2024-03-23T22:25:41;4.00;;;1.97;;
42886;SDS011;29032;56.028;92.904;2024-03-23T22:30:55;4.27;;;2.43;;
42886;SDS011;29032;56.028;92.904;2024-03-23T22:35:57;5.23;;;2.33;;
42886;SDS011;29032;56.028;92.904;2024-03-23T22:41:02;4.50;;;2.60;;
42886;SDS011;29032;56.028;92.904;2024-03-23T22:46:05;2.83;;;2.23;;
42886;SDS011;29032;56.028;92.904;2024-03-23T22:51:08;2.90;;;2.30;;
42886;SDS011;29032;56.028;92.904;2024-03-23T22:56:15;3.53;;;1.90;;
42886;SDS011;29032;56.028;92.904;2024-03-23T23:01:17;2.97;;;1.73;;
42886;SDS011;29032;56.028;92.904;2024-03-23T23:06:19;2.83;;;1.67;;
42886;SDS011;29032;56.028;92.904;2024-03-23T23:11:23;4.20;;;2.17;;
42886;SDS011;29032;56.028;92.904;2024-03-23T23:16:25;4.47;;;2.30;;
42886;SDS011;29032;56.028;92.904;2024-03-23T23:21:27;4.73;;;2.30;;
42886;SDS011;29032;56.028;92.904;2024-03-23T23:26:31;4.57;;;2.60;;
42886;SDS011;29032;56.028;92.904;2024-03-23T23:31:33;6.07;;;2.60;;
42886;SDS011;29032;56.028;92.904;2024-03-23T23:36:35;4.03;;;2.70;;
42886;SDS011;29032;56.028;92.904;2024-03-23T23:41:39;6.30;;;2.53;;
42886;SDS011;29032;56.028;92.904;2024-03-23T23:46:41;7.13;;;2.90;;
42886;SDS011;29032;56.028;92.904;2024-03-23T23:51:43;6.37;;;2.90;;
42886;SDS011;29032;56.028;92.904;2024-03-23T23:56:47;6.23;;;2.63;;
